Home   Weather   Mariehamn   Past weeks
Flag for Åland Islands

Past Weather in Mariehamn, Åland Islands — Yesterday and Last 2 Weeks

Currently: 41 °F. Clear. (Weather station: Mariehamn / Aland Island, Åland Islands). See more current weather

Past Weather in Mariehamn — Graph

°F

Mariehamn Temperature Yesterday

Maximum temperature yesterday: 72 °F (at 1:20 pm)
Minimum temperature yesterday: 41 °F (at 5:20 am)
Average temperature yesterday: 58 °F

High & Low Weather Summary for the Past Weeks

 TemperatureHumidityPressure
High72 °F (May 17, 1:20 pm)100% (May 4, 1:20 am)30.39 "Hg (May 4, 1:20 am)
Low28 °F (May 11, 2:50 am)30% (May 11, 12:20 pm)29.86 "Hg (May 6, 5:50 am)
Average47 °F68%30.13 "Hg
* Reported May 3 3:20 am — May 18 3:50 am, Mariehamn. Weather by CustomWeather, © 2024

Note: Actual official high and low records may vary slightly from our data, if they occured in-between our weather recording intervals... More about our weather records

Mariehamn Weather History for the Previous 24 Hours

Scroll right to see more
 ConditionsComfort  
Time TempWeatherWind HumidityBarometerVisibility
3:50 am
Sat, May 18
41 °FClear.1 mph93%30.15 "Hg10 mi
2:50 am43 °FClear.2 mph87%30.15 "Hg10 mi
2:20 am43 °FClear.1 mph87%30.15 "Hg10 mi
1:50 am43 °FClear.1 mph87%30.15 "Hg10 mi
1:20 am45 °FClear.1 mph87%30.15 "Hg10 mi
12:50 am45 °FClear.No wind87%30.15 "Hg10 mi
12:20 am46 °FClear.1 mph82%30.15 "Hg10 mi
11:50 pm
Fri, May 17
48 °FClear.1 mph76%30.15 "Hg10 mi
11:20 pm48 °FClear.1 mph76%30.15 "Hg10 mi
10:50 pm52 °FClear.1 mph67%30.15 "Hg10 mi
10:20 pm54 °FClear.3 mph58%30.15 "Hg10 mi
9:50 pm55 °FPassing clouds.3 mph55%30.15 "HgN/A
8:50 pm59 °FSunny.5 mph48%30.18 "Hg10 mi
8:20 pm61 °FSunny.6 mph45%30.18 "Hg10 mi
7:50 pm63 °FSunny.7 mph42%30.18 "Hg10 mi
7:20 pm64 °FSunny.8 mph37%30.18 "Hg10 mi
6:50 pm64 °FSunny.8 mph40%30.18 "Hg10 mi
6:20 pm64 °FSunny.9 mph40%30.18 "Hg10 mi
5:50 pm64 °FSunny.9 mph40%30.21 "Hg10 mi
5:20 pm64 °FSunny.9 mph40%30.21 "Hg10 mi
4:20 pm66 °FSunny.8 mph46%30.21 "Hg10 mi
3:50 pm68 °FSunny.8 mph43%30.21 "Hg10 mi
3:20 pm68 °FSunny.12 mph38%30.24 "Hg10 mi
2:50 pm70 °FPassing clouds.9 mph35%30.24 "HgN/A
2:20 pm70 °FPassing clouds.8 mph33%30.24 "HgN/A
1:50 pm70 °FPassing clouds.8 mph35%30.24 "HgN/A
1:20 pm72 °FPassing clouds.8 mph33%30.24 "HgN/A
12:50 pm70 °FSunny.3 mph33%30.24 "Hg10 mi
12:20 pm70 °FPassing clouds.5 mph31%30.24 "HgN/A
11:20 am68 °FPassing clouds.6 mph35%30.24 "HgN/A
10:50 am68 °FPassing clouds.6 mph35%30.24 "HgN/A
10:20 am66 °FPassing clouds.7 mph35%30.24 "HgN/A
9:50 am66 °FPassing clouds.7 mph37%30.24 "HgN/A
9:20 am64 °FSunny.8 mph40%30.24 "Hg10 mi
8:50 am64 °FPassing clouds.8 mph43%30.24 "HgN/A
7:50 am61 °FSunny.1 mph59%30.24 "Hg10 mi
7:20 am54 °FSunny.1 mph77%30.24 "Hg10 mi
6:50 am48 °FSunny.No wind87%30.24 "Hg10 mi
6:20 am46 °FSunny.1 mph87%30.24 "Hg10 mi
5:50 am43 °FSunny.1 mph93%30.24 "Hg10 mi
5:20 am41 °FSunny.No wind100%30.24 "Hg10 mi
Weather by CustomWeather, © 2024

See weather overview